Accueil
METAR-TAF:

METAR-TAF

Aéroports :

Aéroport de Matsapha

Manzini, Swaziland

latitude: 26-32S, longitude: 031-18E, altitude: 641 m

Observation

Le bulletin a été fait il y a 13 heures et 33 minutes, à 14:00 UTC
Vent 7 kt de est
Température 22°C
Humidité 57%
Pression 1021 hPa
Visibilité 10 km ou plus
pas de nuages en-dessous de 1500 mètres et pas de cumulonimbus.

METAR: FDMS 291400Z 09007KT CAVOK 22/13 Q1021 NOSIG

Heure: 05:33 (03:33 UTC)

Prévision

Le bulletin a été fait il y a 20 heures et 33 minutes, à 07:00 UTC
Prévision valable du 29 à 09 UTC au 29 à 18 UTC
Vent 7 kt de nord
Visibilité 10 km ou plus
pas de nuages en-dessous de 1500 mètres et pas de cumulonimbus.
Evoluant progressivement
du 29 à 15 UTC au 29 à 17 UTC
Visibilité 10 km ou plus
Nuages épars à une hauteur de 4000 ft

TAF: FDMS 290700Z 2909/2918 36007KT CAVOK BECMG 2915/2917 9999 SCT040

Observations et prévisions météorologiques de plus de 4000 aéroports (messages METAR et TAF).

Les stations disponibles sont représentées par des disques jaunes et rouges sur la carte.

Passer la souris dessus pour voir le nom de la station.

Cliquer dessus pour voir les observations et prévisions météorologiques.

Pour changer de carte: cliquez sur les boutons verts avec une croix noire pour zoomer, sur le bouton vert avec un tiret pour effectuer un zoom arrière, ou sur les flèches vertes pour les cartes adjacentes.


METAR-TAF: